Time;durP1;ratioP1;P1;durP2;ratioP2;P2;SDS_P1;SDS_P2;PMS_P1;PMS_P2;Temp;Humidity;BMP_temperature;BMP_pressure;BME280_temperature;BME280_humidity;BME280_pressure;Samples;Min_cycle;Max_cycle;Signal;HPM_P1;HPM_P2
2023/11/29 00:00:08;;;;;;;6.35;4.35;;;;;;;;;;5026314;28;20537;-81
2023/11/29 00:02:54;;;;;;;8.50;5.18;;;;;;;;;;5014005;28;20031;-81
2023/11/29 00:05:39;;;;;;;7.88;5.15;;;;;;;;;;5029514;28;20029;-82
2023/11/29 00:08:24;;;;;;;9.25;5.43;;;;;;;;;;5021578;28;20056;-81
2023/11/29 00:11:09;;;;;;;12.65;5.78;;;;;;;;;;5025159;28;20053;-81
2023/11/29 00:13:54;;;;;;;8.35;5.50;;;;;;;;;;5014199;28;20041;-81
2023/11/29 00:16:40;;;;;;;9.40;5.43;;;;;;;;;;5023725;28;20029;-82
2023/11/29 00:19:25;;;;;;;8.50;5.30;;;;;;;;;;5021214;28;20123;-81
2023/11/29 00:22:10;;;;;;;7.32;4.70;;;;;;;;;;5023961;28;20257;-83
2023/11/29 00:24:55;;;;;;;8.63;4.97;;;;;;;;;;5021362;28;20436;-81
2023/11/29 00:27:41;;;;;;;7.45;4.65;;;;;;;;;;5025069;28;20028;-83
2023/11/29 00:30:28;;;;;;;8.20;4.72;;;;;;;;;;5019318;28;20394;-82
2023/11/29 00:33:13;;;;;;;8.20;5.70;;;;;;;;;;5016124;28;20036;-83
2023/11/29 00:35:59;;;;;;;9.30;5.65;;;;;;;;;;5034517;28;20025;-83
2023/11/29 00:38:44;;;;;;;10.10;5.38;;;;;;;;;;5017067;28;20025;-82
2023/11/29 00:41:29;;;;;;;9.43;5.47;;;;;;;;;;5020994;28;20032;-82
2023/11/29 00:44:14;;;;;;;9.25;5.60;;;;;;;;;;5023263;28;20037;-82
2023/11/29 00:47:00;;;;;;;8.63;5.13;;;;;;;;;;5021307;28;20033;-83
2023/11/29 00:49:45;;;;;;;8.13;5.15;;;;;;;;;;5019660;28;20033;-82
2023/11/29 00:52:30;;;;;;;8.45;5.30;;;;;;;;;;5022601;28;20032;-82
2023/11/29 00:55:15;;;;;;;13.45;6.25;;;;;;;;;;5023185;28;21645;-83
2023/11/29 00:58:01;;;;;;;9.35;5.53;;;;;;;;;;5029343;28;20204;-83
2023/11/29 01:00:46;;;;;;;9.38;6.07;;;;;;;;;;5017936;28;20065;-82
2023/11/29 01:03:31;;;;;;;8.93;5.20;;;;;;;;;;5026529;28;20712;-82
2023/11/29 01:06:16;;;;;;;9.90;5.78;;;;;;;;;;5021277;28;20538;-82
2023/11/29 01:09:04;;;;;;;9.00;5.93;;;;;;;;;;5018145;28;20033;-83
2023/11/29 01:11:49;;;;;;;9.55;6.40;;;;;;;;;;5017416;28;20128;-83
2023/11/29 01:14:35;;;;;;;12.68;6.85;;;;;;;;;;5018176;28;20129;-82
2023/11/29 01:17:20;;;;;;;9.05;5.53;;;;;;;;;;5024405;28;20032;-82
2023/11/29 01:20:06;;;;;;;11.80;7.80;;;;;;;;;;5034401;28;20025;-82
2023/11/29 01:22:52;;;;;;;11.52;6.53;;;;;;;;;;5022518;28;20021;-82
2023/11/29 01:25:37;;;;;;;10.77;6.63;;;;;;;;;;5026159;28;20025;-82
2023/11/29 01:28:22;;;;;;;12.38;7.60;;;;;;;;;;5021176;28;20017;-81
2023/11/29 01:31:08;;;;;;;9.80;5.60;;;;;;;;;;5021520;28;20028;-82
2023/11/29 01:33:54;;;;;;;9.25;6.07;;;;;;;;;;5018928;28;20503;-83
2023/11/29 01:36:45;;;;;;;10.75;6.15;;;;;;;;;;5023982;28;20025;-83
2023/11/29 01:39:30;;;;;;;15.05;6.18;;;;;;;;;;5022478;28;20029;-83
2023/11/29 01:42:16;;;;;;;11.88;6.80;;;;;;;;;;5019440;28;20021;-82
2023/11/29 01:45:01;;;;;;;11.68;6.72;;;;;;;;;;5029182;28;20029;-83
2023/11/29 01:47:46;;;;;;;12.07;7.32;;;;;;;;;;5026975;28;20033;-84
2023/11/29 01:50:35;;;;;;;13.48;6.35;;;;;;;;;;5019731;28;20029;-82
2023/11/29 01:53:22;;;;;;;9.33;6.13;;;;;;;;;;5021210;28;20075;-83
2023/11/29 01:56:07;;;;;;;10.98;6.95;;;;;;;;;;5021173;28;20484;-82
2023/11/29 01:58:52;;;;;;;9.70;5.72;;;;;;;;;;5019032;28;20498;-82
2023/11/29 02:01:38;;;;;;;12.43;6.65;;;;;;;;;;5027710;28;20056;-82
2023/11/29 02:07:57;;;;;;;10.85;6.80;;;;;;;;;;5013628;28;20598;-83
2023/11/29 02:10:43;;;;;;;11.30;6.90;;;;;;;;;;5022694;28;20040;-83
2023/11/29 02:13:29;;;;;;;10.02;5.85;;;;;;;;;;5025528;28;20032;-83
2023/11/29 02:16:14;;;;;;;11.95;6.85;;;;;;;;;;5029942;28;20040;-82
2023/11/29 02:18:59;;;;;;;11.18;5.97;;;;;;;;;;5028316;28;20067;-82
2023/11/29 02:21:44;;;;;;;10.68;6.22;;;;;;;;;;5022746;28;20037;-82
2023/11/29 02:24:32;;;;;;;12.00;7.35;;;;;;;;;;5025828;28;20079;-81
2023/11/29 02:27:18;;;;;;;11.85;6.90;;;;;;;;;;5029273;28;20045;-81
2023/11/29 02:30:03;;;;;;;11.57;5.68;;;;;;;;;;5042421;28;20030;-81
2023/11/29 02:32:49;;;;;;;9.55;5.20;;;;;;;;;;5043152;28;20477;-82
2023/11/29 02:35:34;;;;;;;10.48;6.20;;;;;;;;;;5036520;28;20484;-83
2023/11/29 02:38:21;;;;;;;11.13;7.28;;;;;;;;;;5028809;28;20036;-83
2023/11/29 02:41:06;;;;;;;9.02;5.32;;;;;;;;;;5025246;28;20063;-83
2023/11/29 02:43:55;;;;;;;11.13;6.57;;;;;;;;;;5037246;28;20181;-83
2023/11/29 02:46:40;;;;;;;11.10;6.28;;;;;;;;;;5013043;28;20021;-83
2023/11/29 02:49:26;;;;;;;8.65;5.65;;;;;;;;;;5026456;28;20057;-84
2023/11/29 02:52:11;;;;;;;9.40;5.05;;;;;;;;;;5026498;28;20033;-83
2023/11/29 02:54:56;;;;;;;14.13;6.38;;;;;;;;;;5021324;28;20753;-83
2023/11/29 02:57:41;;;;;;;10.93;5.93;;;;;;;;;;5011044;28;20044;-83
2023/11/29 03:00:27;;;;;;;7.85;5.15;;;;;;;;;;5009378;28;20036;-83
2023/11/29 03:03:12;;;;;;;10.52;6.15;;;;;;;;;;5027997;28;20090;-84
2023/11/29 03:05:57;;;;;;;9.63;5.90;;;;;;;;;;5030840;28;20494;-83
2023/11/29 03:08:42;;;;;;;9.80;5.63;;;;;;;;;;5042365;28;20497;-84
2023/11/29 03:11:27;;;;;;;10.80;5.63;;;;;;;;;;5024654;28;20041;-84
2023/11/29 03:14:13;;;;;;;9.85;5.47;;;;;;;;;;5026968;28;20051;-82
2023/11/29 03:16:58;;;;;;;9.25;5.45;;;;;;;;;;5022313;28;20024;-83
2023/11/29 03:19:43;;;;;;;11.05;5.38;;;;;;;;;;5025256;28;20049;-83
2023/11/29 03:22:29;;;;;;;7.68;4.38;;;;;;;;;;5030822;28;20083;-83
2023/11/29 03:25:14;;;;;;;10.43;5.95;;;;;;;;;;5024023;28;20028;-83
2023/11/29 03:27:59;;;;;;;9.30;5.43;;;;;;;;;;5030332;28;20024;-83
2023/11/29 03:30:44;;;;;;;9.90;6.38;;;;;;;;;;5032409;28;20108;-84
2023/11/29 03:33:30;;;;;;;10.32;5.53;;;;;;;;;;5027151;28;20077;-83
2023/11/29 03:36:15;;;;;;;9.10;5.25;;;;;;;;;;5023881;28;20376;-84
2023/11/29 03:39:00;;;;;;;9.07;5.18;;;;;;;;;;5044745;28;20051;-82
2023/11/29 03:41:47;;;;;;;11.98;6.25;;;;;;;;;;5028778;28;20103;-82
2023/11/29 03:44:33;;;;;;;13.82;7.00;;;;;;;;;;5029616;28;20598;-83
2023/11/29 03:47:19;;;;;;;10.77;5.63;;;;;;;;;;5025949;28;20021;-81
2023/11/29 03:50:04;;;;;;;9.48;5.72;;;;;;;;;;5029177;28;20035;-81
2023/11/29 03:52:49;;;;;;;8.90;5.22;;;;;;;;;;5029216;28;20031;-81
2023/11/29 03:55:35;;;;;;;11.02;5.57;;;;;;;;;;5025906;28;20033;-81
2023/11/29 03:58:20;;;;;;;10.52;5.43;;;;;;;;;;5023881;28;20199;-81
2023/11/29 04:01:05;;;;;;;10.27;5.75;;;;;;;;;;5030575;28;20320;-81
2023/11/29 04:03:51;;;;;;;10.55;6.03;;;;;;;;;;5024554;28;20021;-83
2023/11/29 04:06:54;;;;;;;15.25;7.03;;;;;;;;;;5021373;28;20067;-83
2023/11/29 04:09:40;;;;;;;11.05;5.55;;;;;;;;;;5018739;28;20455;-84
2023/11/29 04:12:25;;;;;;;10.25;5.57;;;;;;;;;;5013151;28;20036;-84
2023/11/29 04:15:11;;;;;;;11.27;5.28;;;;;;;;;;5011148;28;20120;-83
2023/11/29 04:17:56;;;;;;;12.90;5.78;;;;;;;;;;5016593;28;20032;-83
2023/11/29 04:20:41;;;;;;;10.10;5.30;;;;;;;;;;5016224;28;20522;-83
2023/11/29 04:23:26;;;;;;;8.18;5.05;;;;;;;;;;5009758;28;20541;-83
2023/11/29 04:26:28;;;;;;;10.90;5.93;;;;;;;;;;5026401;28;20037;-83
2023/11/29 04:29:13;;;;;;;10.52;5.88;;;;;;;;;;5008506;28;20807;-84
2023/11/29 04:31:58;;;;;;;10.20;5.90;;;;;;;;;;5019129;28;20028;-83
2023/11/29 04:34:43;;;;;;;10.18;5.75;;;;;;;;;;5012750;28;20029;-82
2023/11/29 04:37:31;;;;;;;13.20;5.85;;;;;;;;;;5015916;28;20022;-82
2023/11/29 04:40:16;;;;;;;10.65;5.03;;;;;;;;;;5022757;28;20124;-82
2023/11/29 04:43:02;;;;;;;9.32;4.88;;;;;;;;;;5017658;28;20072;-83
2023/11/29 04:45:47;;;;;;;12.60;6.43;;;;;;;;;;5015525;28;20024;-83
2023/11/29 04:48:33;;;;;;;10.50;5.82;;;;;;;;;;5021925;28;20357;-82
2023/11/29 04:51:18;;;;;;;8.93;4.93;;;;;;;;;;5018213;28;20060;-82
2023/11/29 04:54:04;;;;;;;11.27;5.63;;;;;;;;;;5018218;28;20096;-82
2023/11/29 04:56:50;;;;;;;9.82;5.72;;;;;;;;;;5018049;28;20037;-82
2023/11/29 04:59:37;;;;;;;11.88;6.32;;;;;;;;;;5019848;28;20097;-80
2023/11/29 05:02:23;;;;;;;10.50;5.47;;;;;;;;;;5029226;28;20120;-82
2023/11/29 05:05:07;;;;;;;11.05;5.95;;;;;;;;;;5049254;28;20056;-82
2023/11/29 05:07:53;;;;;;;10.75;6.00;;;;;;;;;;5035274;28;20018;-82
2023/11/29 05:10:37;;;;;;;16.33;6.50;;;;;;;;;;5060032;28;20048;-82
2023/11/29 05:13:21;;;;;;;9.70;5.20;;;;;;;;;;5045832;28;20387;-82
2023/11/29 05:16:06;;;;;;;11.35;5.88;;;;;;;;;;5033188;28;20059;-82
2023/11/29 05:18:52;;;;;;;12.65;5.95;;;;;;;;;;5020176;28;20094;-83
2023/11/29 05:21:38;;;;;;;8.93;4.93;;;;;;;;;;5036896;28;20017;-82
2023/11/29 05:24:23;;;;;;;10.70;5.88;;;;;;;;;;5031320;28;20460;-83
2023/11/29 05:27:08;;;;;;;12.40;5.45;;;;;;;;;;5026536;28;20431;-82
2023/11/29 05:29:53;;;;;;;11.68;6.75;;;;;;;;;;5026364;28;20496;-83
2023/11/29 05:32:42;;;;;;;11.57;6.15;;;;;;;;;;5031578;28;20086;-83
2023/11/29 05:35:27;;;;;;;10.98;5.72;;;;;;;;;;5035617;28;20036;-83
2023/11/29 05:38:13;;;;;;;11.25;6.30;;;;;;;;;;5038017;28;20025;-82
2023/11/29 05:40:58;;;;;;;11.23;6.10;;;;;;;;;;5035201;28;20027;-83
2023/11/29 05:43:43;;;;;;;11.70;6.28;;;;;;;;;;5025932;28;20429;-83
2023/11/29 05:46:29;;;;;;;11.68;6.75;;;;;;;;;;5025433;28;20029;-82
2023/11/29 05:49:14;;;;;;;10.88;5.82;;;;;;;;;;5037328;28;20944;-83
2023/11/29 05:51:59;;;;;;;11.38;5.97;;;;;;;;;;5032935;28;20025;-83
2023/11/29 05:54:46;;;;;;;10.73;5.80;;;;;;;;;;5038276;28;20034;-80
2023/11/29 05:57:31;;;;;;;11.48;6.00;;;;;;;;;;5037612;28;20086;-82
2023/11/29 06:00:18;;;;;;;9.88;5.78;;;;;;;;;;5030010;28;20032;-82
2023/11/29 06:03:03;;;;;;;11.40;6.65;;;;;;;;;;5028148;28;20113;-82
2023/11/29 06:05:49;;;;;;;11.10;5.57;;;;;;;;;;5032762;28;20090;-82
2023/11/29 06:08:34;;;;;;;11.48;6.18;;;;;;;;;;5041155;28;20482;-82
2023/11/29 06:11:19;;;;;;;12.48;6.63;;;;;;;;;;5039811;28;20063;-82
2023/11/29 06:14:04;;;;;;;11.18;5.93;;;;;;;;;;5032623;28;20029;-82
2023/11/29 06:16:50;;;;;;;11.98;6.40;;;;;;;;;;5032518;28;20029;-81
2023/11/29 06:19:35;;;;;;;10.68;6.32;;;;;;;;;;5020353;28;20112;-82
2023/11/29 06:22:20;;;;;;;9.50;5.40;;;;;;;;;;5032001;28;20037;-81
2023/11/29 06:25:07;;;;;;;11.82;5.70;;;;;;;;;;5017733;28;20021;-82
2023/11/29 06:27:52;;;;;;;12.07;5.78;;;;;;;;;;5033026;28;20029;-79
2023/11/29 06:30:38;;;;;;;11.68;6.88;;;;;;;;;;5032096;28;20028;-78
2023/11/29 06:33:23;;;;;;;10.98;6.68;;;;;;;;;;5032205;28;20033;-78
2023/11/29 06:36:08;;;;;;;11.48;6.30;;;;;;;;;;5029217;28;20102;-79
2023/11/29 06:38:54;;;;;;;12.57;7.55;;;;;;;;;;5026171;28;20033;-83
2023/11/29 06:41:39;;;;;;;13.07;7.63;;;;;;;;;;5024259;28;20024;-84
2023/11/29 06:44:25;;;;;;;11.73;5.72;;;;;;;;;;5030669;28;20028;-83
2023/11/29 06:47:19;;;;;;;10.30;5.70;;;;;;;;;;5019721;28;20381;-83
2023/11/29 06:50:05;;;;;;;14.15;7.13;;;;;;;;;;5030454;28;20029;-81
2023/11/29 06:52:50;;;;;;;9.95;6.07;;;;;;;;;;5032577;28;20025;-83
2023/11/29 06:55:35;;;;;;;10.85;6.50;;;;;;;;;;5032127;28;20430;-82
2023/11/29 06:58:21;;;;;;;13.90;6.75;;;;;;;;;;5016765;28;20037;-82
2023/11/29 07:01:10;;;;;;;13.52;7.32;;;;;;;;;;5028401;28;20029;-83
2023/11/29 07:03:55;;;;;;;12.55;6.60;;;;;;;;;;5029499;28;20602;-80
2023/11/29 07:06:40;;;;;;;12.70;6.57;;;;;;;;;;5023819;28;20488;-81
2023/11/29 07:09:26;;;;;;;16.00;8.13;;;;;;;;;;5027428;28;20040;-80
2023/11/29 07:12:11;;;;;;;13.55;7.82;;;;;;;;;;5029595;28;20112;-81
2023/11/29 07:14:59;;;;;;;18.80;7.45;;;;;;;;;;5029638;28;20395;-81
2023/11/29 07:17:44;;;;;;;13.95;7.40;;;;;;;;;;5031128;28;20032;-79
2023/11/29 07:20:30;;;;;;;12.75;6.80;;;;;;;;;;5029009;28;20025;-80
2023/11/29 07:23:15;;;;;;;12.60;6.97;;;;;;;;;;5033240;28;20021;-81
2023/11/29 07:26:00;;;;;;;12.32;6.65;;;;;;;;;;5025077;28;20022;-81
2023/11/29 07:28:47;;;;;;;10.50;6.85;;;;;;;;;;5024507;28;20037;-81
2023/11/29 07:31:35;;;;;;;14.68;7.70;;;;;;;;;;5027639;28;20033;-81
2023/11/29 07:34:20;;;;;;;11.35;6.80;;;;;;;;;;5022038;28;20044;-81
2023/11/29 07:37:06;;;;;;;13.52;7.15;;;;;;;;;;5024820;28;20029;-80
2023/11/29 07:39:51;;;;;;;11.95;6.78;;;;;;;;;;5027710;28;20025;-79
2023/11/29 07:42:37;;;;;;;21.27;5.63;;;;;;;;;;5030754;28;20059;-79
2023/11/29 07:45:22;;;;;;;11.32;6.25;;;;;;;;;;5026216;28;20025;-81
2023/11/29 07:48:07;;;;;;;11.57;6.38;;;;;;;;;;5027649;28;20025;-83
2023/11/29 07:50:53;;;;;;;10.32;5.47;;;;;;;;;;5024860;28;20033;-80
2023/11/29 07:53:38;;;;;;;9.25;5.50;;;;;;;;;;5027634;28;20056;-81
2023/11/29 07:56:23;;;;;;;9.98;5.78;;;;;;;;;;5023330;28;20112;-80
2023/11/29 07:59:09;;;;;;;9.20;5.47;;;;;;;;;;5025989;28;20033;-79
2023/11/29 08:01:54;;;;;;;9.60;5.82;;;;;;;;;;5028055;28;20447;-81
2023/11/29 08:04:39;;;;;;;10.38;5.50;;;;;;;;;;5028085;28;20494;-80
2023/11/29 08:07:25;;;;;;;9.13;5.57;;;;;;;;;;5026729;28;20021;-81
2023/11/29 08:10:10;;;;;;;9.07;4.95;;;;;;;;;;5029540;28;20136;-80
2023/11/29 08:12:58;;;;;;;11.07;4.82;;;;;;;;;;5025940;28;20029;-81
2023/11/29 08:15:43;;;;;;;9.63;4.82;;;;;;;;;;5023398;28;20124;-79
2023/11/29 08:18:28;;;;;;;9.75;4.57;;;;;;;;;;5039258;28;20035;-80
2023/11/29 08:21:14;;;;;;;8.15;4.38;;;;;;;;;;5028408;28;20017;-81
2023/11/29 08:23:59;;;;;;;9.48;5.75;;;;;;;;;;5028433;28;20024;-80
2023/11/29 08:26:45;;;;;;;9.60;4.90;;;;;;;;;;5029325;28;20027;-81
2023/11/29 08:29:31;;;;;;;6.93;3.83;;;;;;;;;;5022351;28;20535;-80
2023/11/29 08:32:16;;;;;;;7.93;4.60;;;;;;;;;;5029140;28;20052;-79
2023/11/29 08:35:04;;;;;;;8.20;4.38;;;;;;;;;;5024095;28;20037;-79
2023/11/29 08:37:50;;;;;;;7.80;4.05;;;;;;;;;;5028136;28;20039;-80
2023/11/29 08:40:35;;;;;;;8.50;4.63;;;;;;;;;;5027360;28;20126;-79
2023/11/29 08:43:21;;;;;;;8.80;4.75;;;;;;;;;;5021124;28;20041;-78
2023/11/29 08:46:06;;;;;;;6.75;3.97;;;;;;;;;;5028023;28;20036;-80
2023/11/29 08:48:51;;;;;;;6.50;3.97;;;;;;;;;;5025109;28;20128;-79
2023/11/29 08:51:36;;;;;;;6.55;4.13;;;;;;;;;;5029181;28;20087;-79
2023/11/29 08:54:22;;;;;;;7.38;4.07;;;;;;;;;;5027387;28;20025;-78
2023/11/29 08:57:07;;;;;;;7.25;4.10;;;;;;;;;;5019613;28;20037;-79
2023/11/29 08:59:52;;;;;;;6.07;3.80;;;;;;;;;;5029695;28;20032;-78
2023/11/29 09:02:38;;;;;;;7.28;4.15;;;;;;;;;;5027478;28;20032;-80
2023/11/29 09:05:23;;;;;;;6.32;3.72;;;;;;;;;;5022744;28;20033;-77
2023/11/29 09:08:09;;;;;;;6.97;4.07;;;;;;;;;;5021938;28;20079;-81
2023/11/29 09:10:54;;;;;;;6.55;3.97;;;;;;;;;;5034235;28;20225;-79
2023/11/29 09:13:40;;;;;;;6.90;4.45;;;;;;;;;;5042977;28;20130;-80
2023/11/29 09:16:25;;;;;;;8.77;4.10;;;;;;;;;;5034828;28;20387;-80
2023/11/29 09:19:10;;;;;;;6.20;4.00;;;;;;;;;;5034697;28;20039;-80
2023/11/29 09:21:56;;;;;;;6.90;3.58;;;;;;;;;;5023306;28;20378;-81
2023/11/29 09:24:41;;;;;;;6.97;3.78;;;;;;;;;;5041880;28;20064;-81
2023/11/29 09:27:26;;;;;;;5.90;3.88;;;;;;;;;;5042290;28;20120;-80
2023/11/29 09:30:12;;;;;;;7.60;4.28;;;;;;;;;;5025390;28;20855;-81
2023/11/29 09:32:58;;;;;;;8.35;4.63;;;;;;;;;;5031493;28;20025;-81
2023/11/29 09:35:44;;;;;;;6.55;4.35;;;;;;;;;;5040697;28;20409;-80
2023/11/29 09:38:29;;;;;;;6.43;4.05;;;;;;;;;;5031507;28;20112;-81
2023/11/29 09:41:15;;;;;;;7.47;4.10;;;;;;;;;;5041768;28;20039;-80
2023/11/29 09:44:03;;;;;;;7.38;4.15;;;;;;;;;;5031241;28;20479;-79
2023/11/29 09:46:48;;;;;;;8.52;4.63;;;;;;;;;;5034579;28;20056;-79
2023/11/29 09:49:34;;;;;;;7.05;4.10;;;;;;;;;;5038511;28;20474;-79
2023/11/29 09:52:20;;;;;;;7.65;4.10;;;;;;;;;;5032369;28;20633;-79
2023/11/29 09:55:05;;;;;;;8.13;4.43;;;;;;;;;;5033044;28;20411;-79
2023/11/29 09:57:51;;;;;;;8.27;4.00;;;;;;;;;;5033252;28;20602;-80
2023/11/29 10:00:36;;;;;;;7.55;4.15;;;;;;;;;;5019459;28;20028;-79
2023/11/29 10:03:22;;;;;;;7.53;4.00;;;;;;;;;;5028712;28;20043;-80
2023/11/29 10:06:08;;;;;;;8.48;4.68;;;;;;;;;;5027779;28;20047;-80
2023/11/29 10:08:53;;;;;;;4.90;3.55;;;;;;;;;;5025745;28;20446;-78
2023/11/29 10:11:39;;;;;;;4.85;2.88;;;;;;;;;;5022686;28;20057;-78
2023/11/29 10:14:24;;;;;;;5.82;3.53;;;;;;;;;;5014011;28;20476;-82
2023/11/29 10:17:14;;;;;;;7.43;3.85;;;;;;;;;;5017571;28;20108;-79
2023/11/29 10:19:59;;;;;;;7.47;3.30;;;;;;;;;;5021758;28;20021;-79
2023/11/29 10:22:49;;;;;;;6.13;3.40;;;;;;;;;;5019803;28;20036;-78
2023/11/29 10:25:34;;;;;;;;;;;;;;;;;;5034599;28;20139;-78
2023/11/29 10:28:19;;;;;;;6.60;2.95;;;;;;;;;;5021236;28;19940;-79
2023/11/29 10:31:04;;;;;;;10.25;3.88;;;;;;;;;;5017084;28;20060;-79
2023/11/29 10:33:50;;;;;;;6.38;3.53;;;;;;;;;;5029105;28;20084;-80
2023/11/29 10:36:37;;;;;;;5.30;3.88;;;;;;;;;;5013430;28;20083;-79
2023/11/29 10:39:23;;;;;;;6.40;4.20;;;;;;;;;;5022644;28;20037;-79
2023/11/29 10:42:09;;;;;;;10.00;4.90;;;;;;;;;;5010613;28;20033;-79
2023/11/29 10:44:55;;;;;;;5.25;3.70;;;;;;;;;;5019415;28;20471;-78
2023/11/29 10:47:43;;;;;;;8.57;3.42;;;;;;;;;;5022004;28;20025;-78
2023/11/29 10:50:28;;;;;;;9.48;3.53;;;;;;;;;;5013295;28;20117;-79
2023/11/29 10:53:14;;;;;;;6.75;3.63;;;;;;;;;;5035524;28;20183;-78
2023/11/29 10:56:00;;;;;;;5.07;3.30;;;;;;;;;;5017004;28;20099;-79
2023/11/29 10:58:48;;;;;;;4.18;2.95;;;;;;;;;;5015829;28;20037;-79
2023/11/29 11:01:34;;;;;;;7.00;3.47;;;;;;;;;;5024789;28;20017;-79
2023/11/29 11:04:20;;;;;;;4.50;3.05;;;;;;;;;;5021030;28;20136;-79
2023/11/29 11:07:05;;;;;;;5.57;3.50;;;;;;;;;;5019307;28;20126;-79
2023/11/29 11:09:51;;;;;;;6.03;3.65;;;;;;;;;;5013249;28;20103;-80
2023/11/29 11:12:37;;;;;;;7.32;3.72;;;;;;;;;;5016132;28;20033;-79
2023/11/29 11:15:27;;;;;;;5.75;3.50;;;;;;;;;;5018076;28;20037;-79
2023/11/29 11:18:16;;;;;;;6.57;3.53;;;;;;;;;;5027594;28;20061;-78
2023/11/29 11:21:05;;;;;;;5.03;3.10;;;;;;;;;;5018490;28;20043;-77
2023/11/29 11:23:50;;;;;;;5.40;3.20;;;;;;;;;;5016111;28;20029;-77
2023/11/29 11:26:35;;;;;;;4.57;3.22;;;;;;;;;;5011849;28;20057;-78
2023/11/29 11:29:20;;;;;;;4.57;2.97;;;;;;;;;;5003129;28;20037;-80
2023/11/29 11:32:06;;;;;;;6.55;3.15;;;;;;;;;;5020623;28;20272;-81
2023/11/29 11:34:53;;;;;;;5.03;3.05;;;;;;;;;;5030508;28;20024;-79
2023/11/29 11:37:38;;;;;;;4.28;2.83;;;;;;;;;;5011787;28;20104;-80
2023/11/29 11:40:24;;;;;;;4.70;2.83;;;;;;;;;;5016042;28;20486;-79
2023/11/29 11:43:09;;;;;;;4.43;2.55;;;;;;;;;;5034181;28;20033;-79
2023/11/29 11:45:55;;;;;;;4.72;2.72;;;;;;;;;;5004386;28;20029;-79
2023/11/29 11:48:44;;;;;;;7.72;3.10;;;;;;;;;;5026774;28;20096;-79
2023/11/29 11:51:29;;;;;;;4.32;2.80;;;;;;;;;;5021388;28;20095;-78
2023/11/29 11:54:14;;;;;;;4.45;3.10;;;;;;;;;;5012881;28;20036;-78
2023/11/29 11:57:00;;;;;;;3.90;2.60;;;;;;;;;;5017966;28;20426;-78
2023/11/29 11:59:45;;;;;;;4.78;2.90;;;;;;;;;;5025451;28;20132;-79
2023/11/29 12:02:30;;;;;;;4.88;2.88;;;;;;;;;;5023406;28;20017;-79
2023/11/29 12:05:15;;;;;;;3.53;2.30;;;;;;;;;;5017786;28;20028;-79
2023/11/29 12:08:01;;;;;;;4.15;2.53;;;;;;;;;;5024102;28;20475;-79
2023/11/29 12:10:46;;;;;;;5.35;2.55;;;;;;;;;;5044743;28;20057;-80
2023/11/29 12:13:32;;;;;;;3.75;2.38;;;;;;;;;;5020391;28;20031;-79
2023/11/29 12:16:17;;;;;;;3.85;2.60;;;;;;;;;;5025441;28;20036;-79
2023/11/29 12:19:03;;;;;;;4.55;2.83;;;;;;;;;;5028186;28;20079;-79
2023/11/29 12:21:48;;;;;;;4.38;2.40;;;;;;;;;;5027879;28;20033;-79
2023/11/29 12:24:46;;;;;;;3.88;2.55;;;;;;;;;;5029964;28;20029;-78
2023/11/29 12:27:32;;;;;;;5.57;3.40;;;;;;;;;;5029122;28;20032;-78
2023/11/29 12:30:19;;;;;;;3.20;2.17;;;;;;;;;;5028302;28;20102;-79
2023/11/29 12:33:04;;;;;;;5.72;2.55;;;;;;;;;;5023532;28;20519;-80
2023/11/29 12:35:49;;;;;;;6.38;2.83;;;;;;;;;;5014138;28;20738;-79
2023/11/29 12:38:35;;;;;;;4.18;2.75;;;;;;;;;;5027815;28;20033;-78
2023/11/29 12:41:20;;;;;;;5.18;3.05;;;;;;;;;;5027665;28;20036;-78
2023/11/29 12:44:09;;;;;;;4.57;2.92;;;;;;;;;;5025855;28;20033;-81
2023/11/29 12:46:54;;;;;;;4.60;2.92;;;;;;;;;;5024399;28;20372;-81
2023/11/29 12:49:40;;;;;;;4.32;2.65;;;;;;;;;;5025026;28;20052;-80
2023/11/29 12:52:25;;;;;;;4.22;2.33;;;;;;;;;;5025485;28;20024;-79
2023/11/29 12:55:11;;;;;;;4.15;2.47;;;;;;;;;;5026855;28;20037;-80
2023/11/29 12:57:56;;;;;;;5.00;3.05;;;;;;;;;;5036887;28;20029;-80
2023/11/29 13:00:44;;;;;;;3.95;2.42;;;;;;;;;;5026205;28;20028;-79
2023/11/29 13:03:30;;;;;;;4.80;2.80;;;;;;;;;;5044964;28;20033;-80
2023/11/29 13:06:15;;;;;;;4.85;2.50;;;;;;;;;;5037673;28;20013;-80
2023/11/29 13:09:02;;;;;;;4.72;2.20;;;;;;;;;;5048498;28;20174;-80
2023/11/29 13:11:47;;;;;;;5.57;2.65;;;;;;;;;;5030585;28;20048;-80
2023/11/29 13:14:41;;;;;;;6.03;2.92;;;;;;;;;;5041804;28;20029;-80
2023/11/29 13:17:26;;;;;;;5.32;2.92;;;;;;;;;;5030671;28;20036;-80
2023/11/29 13:20:11;;;;;;;7.10;3.13;;;;;;;;;;5027834;28;20089;-80
2023/11/29 13:22:57;;;;;;;6.57;2.80;;;;;;;;;;5026236;28;20385;-80
2023/11/29 13:25:42;;;;;;;10.77;3.28;;;;;;;;;;5030093;28;20483;-81
2023/11/29 13:28:27;;;;;;;7.18;2.75;;;;;;;;;;5026927;28;20033;-80
2023/11/29 13:31:13;;;;;;;4.90;2.70;;;;;;;;;;5033068;28;20132;-81
2023/11/29 13:33:58;;;;;;;4.93;2.70;;;;;;;;;;5024612;28;20027;-81
2023/11/29 13:36:43;;;;;;;5.38;2.88;;;;;;;;;;5030217;28;20036;-82
2023/11/29 13:39:30;;;;;;;7.57;3.67;;;;;;;;;;5030077;28;20624;-82
2023/11/29 13:42:15;;;;;;;3.85;2.60;;;;;;;;;;5030647;28;20067;-82
2023/11/29 13:45:04;;;;;;;5.20;3.10;;;;;;;;;;5027478;28;20025;-82
2023/11/29 13:47:49;;;;;;;6.78;3.28;;;;;;;;;;5042731;28;20099;-79
2023/11/29 13:50:34;;;;;;;4.78;2.95;;;;;;;;;;5030036;28;20028;-81
2023/11/29 13:53:19;;;;;;;14.35;4.38;;;;;;;;;;5029232;28;20032;-81
2023/11/29 13:56:05;;;;;;;5.82;2.90;;;;;;;;;;5030427;28;20025;-81
2023/11/29 13:58:59;;;;;;;5.53;3.15;;;;;;;;;;5030326;28;20052;-82
2023/11/29 14:01:47;;;;;;;6.97;2.92;;;;;;;;;;5012450;28;20749;-81
2023/11/29 14:04:32;;;;;;;4.50;2.60;;;;;;;;;;5027748;28;20074;-82
2023/11/29 14:07:18;;;;;;;8.57;2.75;;;;;;;;;;5005296;28;21154;-82
2023/11/29 14:10:03;;;;;;;5.20;3.00;;;;;;;;;;5029957;28;20495;-83
2023/11/29 14:12:48;;;;;;;5.40;3.10;;;;;;;;;;5020821;28;20032;-82
2023/11/29 14:15:34;;;;;;;4.15;2.70;;;;;;;;;;5027623;28;20032;-83
2023/11/29 14:18:19;;;;;;;5.82;3.25;;;;;;;;;;5028341;28;20032;-82
2023/11/29 14:21:04;;;;;;;4.75;2.55;;;;;;;;;;5034101;28;20048;-82
2023/11/29 14:23:49;;;;;;;5.15;2.58;;;;;;;;;;5031216;28;20078;-82
2023/11/29 14:26:35;;;;;;;4.45;2.80;;;;;;;;;;5038901;28;20030;-83
2023/11/29 14:29:21;;;;;;;4.10;2.60;;;;;;;;;;5029283;28;20053;-82
2023/11/29 14:32:06;;;;;;;4.82;2.80;;;;;;;;;;5021683;28;20032;-83
2023/11/29 14:34:52;;;;;;;7.78;3.28;;;;;;;;;;5024978;28;20494;-82
2023/11/29 14:37:37;;;;;;;6.30;2.90;;;;;;;;;;5025514;28;20469;-82
2023/11/29 14:40:23;;;;;;;5.05;2.88;;;;;;;;;;5021139;28;20113;-82
2023/11/29 14:43:08;;;;;;;5.95;2.80;;;;;;;;;;5027727;28;20032;-83
2023/11/29 14:45:53;;;;;;;5.18;2.70;;;;;;;;;;5024824;28;20082;-83
2023/11/29 14:48:38;;;;;;;4.90;2.92;;;;;;;;;;5020624;28;20029;-83
2023/11/29 14:51:24;;;;;;;7.18;3.65;;;;;;;;;;5015068;28;20423;-82
2023/11/29 14:54:09;;;;;;;6.53;2.95;;;;;;;;;;5026360;28;20491;-83
2023/11/29 14:56:54;;;;;;;6.25;3.25;;;;;;;;;;5015688;28;20490;-82
2023/11/29 14:59:40;;;;;;;4.88;2.95;;;;;;;;;;5029069;28;20033;-82
2023/11/29 15:02:25;;;;;;;6.50;2.83;;;;;;;;;;5033217;28;20025;-82
2023/11/29 15:05:10;;;;;;;8.02;3.95;;;;;;;;;;5032481;28;20033;-82
2023/11/29 15:07:55;;;;;;;7.82;3.50;;;;;;;;;;5043583;28;20679;-82
2023/11/29 15:10:41;;;;;;;6.25;3.30;;;;;;;;;;5031970;28;20071;-83
2023/11/29 15:13:27;;;;;;;7.20;3.05;;;;;;;;;;5026222;28;20067;-82
2023/11/29 15:16:13;;;;;;;7.70;3.40;;;;;;;;;;5027201;28;20052;-83
2023/11/29 15:18:58;;;;;;;5.43;2.97;;;;;;;;;;5032678;28;20028;-83
2023/11/29 15:21:43;;;;;;;6.65;2.92;;;;;;;;;;5030895;28;20021;-85
2023/11/29 15:24:28;;;;;;;5.05;3.10;;;;;;;;;;5034836;28;20080;-83
2023/11/29 15:27:14;;;;;;;4.97;2.85;;;;;;;;;;5028770;28;20120;-81
2023/11/29 15:29:59;;;;;;;5.63;3.03;;;;;;;;;;5034822;28;20028;-83
2023/11/29 15:32:44;;;;;;;7.32;3.58;;;;;;;;;;5033918;28;20032;-82
2023/11/29 15:35:29;;;;;;;6.40;2.90;;;;;;;;;;5024781;28;20025;-83
2023/11/29 15:38:14;;;;;;;5.80;2.70;;;;;;;;;;5029907;28;20045;-83
2023/11/29 15:41:00;;;;;;;7.85;3.88;;;;;;;;;;5031612;28;20041;-83
2023/11/29 15:43:45;;;;;;;8.05;2.88;;;;;;;;;;5031300;28;20029;-83
2023/11/29 15:46:31;;;;;;;7.15;3.47;;;;;;;;;;5031318;28;20029;-83
2023/11/29 15:49:17;;;;;;;8.43;3.88;;;;;;;;;;5028909;28;20426;-83
2023/11/29 15:52:02;;;;;;;5.25;3.30;;;;;;;;;;5028433;28;20051;-83
2023/11/29 15:54:47;;;;;;;6.07;3.22;;;;;;;;;;5031614;28;20021;-83
2023/11/29 15:57:32;;;;;;;5.88;3.35;;;;;;;;;;5028406;28;20029;-83
2023/11/29 16:00:18;;;;;;;5.57;3.63;;;;;;;;;;5034143;28;20033;-82
2023/11/29 16:03:03;;;;;;;10.50;3.72;;;;;;;;;;5031349;28;20021;-80
2023/11/29 16:05:51;;;;;;;8.38;3.85;;;;;;;;;;5027821;28;20036;-80
2023/11/29 16:08:42;;;;;;;9.05;3.20;;;;;;;;;;5028753;28;20428;-81
2023/11/29 16:11:28;;;;;;;5.95;3.25;;;;;;;;;;5027856;28;20045;-80
2023/11/29 16:14:13;;;;;;;8.85;4.68;;;;;;;;;;5026114;28;20443;-80
2023/11/29 16:16:58;;;;;;;9.70;4.35;;;;;;;;;;5028700;28;20104;-80
2023/11/29 16:19:43;;;;;;;6.95;3.13;;;;;;;;;;5029602;28;20111;-80
2023/11/29 16:22:29;;;;;;;6.65;3.92;;;;;;;;;;5028079;28;20017;-79
2023/11/29 16:25:14;;;;;;;6.53;3.17;;;;;;;;;;5026034;28;20154;-79
2023/11/29 16:27:59;;;;;;;6.93;3.88;;;;;;;;;;5030491;28;20051;-82
2023/11/29 16:30:45;;;;;;;5.95;3.28;;;;;;;;;;5026888;28;20032;-80